Time;durP1;ratioP1;P1;durP2;ratioP2;P2;SDS_P1;SDS_P2;PMS_P1;PMS_P2;Temp;Humidity;BMP_temperature;BMP_pressure;BME280_temperature;BME280_humidity;BME280_pressure;Samples;Min_cycle;Max_cycle;Signal;HPM_P1;HPM_P2
2021/12/10 00:02:23;;;;;;;;;;;15.60;44.80;14.50;99537.00;;;;5054991;28;19924;-61
2021/12/10 00:05:09;;;;;;;;;;;15.60;44.80;14.50;99516.00;;;;5082898;28;20015;-61
2021/12/10 00:07:55;;;;;;;;;;;15.60;44.80;14.50;99519.00;;;;5075340;28;20222;-61
2021/12/10 00:10:47;;;;;;;;;;;15.60;44.80;14.50;99526.00;;;;5058480;28;19955;-61
2021/12/10 00:13:33;;;;;;;;;;;15.60;44.80;14.50;99513.00;;;;5055548;28;20327;-61
2021/12/10 00:16:19;;;;;;;;;;;15.60;44.80;14.50;99514.00;;;;5057863;28;19916;-61
2021/12/10 00:22:23;;;;;;;;;;;15.60;44.80;14.50;99492.00;;;;5055309;28;20328;-62
2021/12/10 00:25:20;;;;;;;;;;;15.60;44.80;14.50;99514.00;;;;5073947;28;20432;-61
2021/12/10 00:28:18;;;;;;;;;;;15.60;44.80;14.50;99494.00;;;;5052290;28;20366;-61
2021/12/10 00:31:29;;;;;;;;;;;15.60;44.80;14.50;99495.00;;;;5069596;28;20007;-62
2021/12/10 00:34:29;;;;;;;;;;;15.60;44.80;14.50;99485.00;;;;5060491;28;20269;-62
2021/12/10 00:37:17;;;;;;;;;;;15.60;44.80;14.50;99478.00;;;;5082625;28;20369;-62
2021/12/10 00:40:06;;;;;;;;;;;15.60;44.80;14.50;99482.00;;;;5081787;28;19965;-62
2021/12/10 00:42:53;;;;;;;;;;;15.60;44.80;14.50;99480.00;;;;5089113;28;19924;-61
2021/12/10 00:45:39;;;;;;;;;;;15.60;44.80;14.50;99475.00;;;;5085412;28;19924;-62
2021/12/10 00:48:25;;;;;;;;;;;15.60;44.80;14.50;99471.00;;;;5063237;28;19920;-62
2021/12/10 00:51:11;;;;;;;;;;;15.60;44.80;14.50;99464.00;;;;5085514;28;20408;-61
2021/12/10 00:53:58;;;;;;;;;;;15.60;44.80;14.50;99459.00;;;;5071864;28;19956;-62
2021/12/10 00:56:44;;;;;;;;;;;15.60;44.80;14.50;99458.00;;;;5069969;28;20341;-62
2021/12/10 00:59:30;;;;;;;;;;;15.60;44.80;14.50;99447.00;;;;5073996;28;20285;-62
2021/12/10 01:02:18;;;;;;;;;;;15.60;44.80;14.50;99452.00;;;;5073932;28;20007;-62
2021/12/10 01:05:04;;;;;;;;;;;15.60;44.80;14.50;99448.00;;;;5074620;28;19969;-62
2021/12/10 01:07:51;;;;;;;;;;;15.70;44.80;14.50;99447.00;;;;5055394;28;20202;-62
2021/12/10 01:10:50;;;;;;;;;;;15.60;44.80;14.50;99450.00;;;;5064396;28;19928;-62
2021/12/10 01:13:38;;;;;;;;;;;15.70;44.80;14.50;99441.00;;;;5082106;28;19927;-61
2021/12/10 01:25:53;;;;;;;;;;;15.60;44.70;14.50;99419.00;;;;5029564;28;19920;-62
2021/12/10 01:28:41;;;;;;;;;;;15.60;44.70;14.50;99417.00;;;;5067969;28;20404;-62
2021/12/10 01:31:27;;;;;;;;;;;15.60;44.70;14.50;99402.00;;;;5055883;28;19950;-62
2021/12/10 01:34:13;;;;;;;;;;;15.70;44.80;14.50;99403.00;;;;5066989;28;20007;-62
2021/12/10 01:37:01;;;;;;;;;;;15.60;44.70;14.50;99391.00;;;;5066014;28;19971;-62
2021/12/10 01:39:47;;;;;;;;;;;15.60;44.70;14.60;99394.00;;;;5076846;28;19999;-61
2021/12/10 01:42:44;;;;;;;;;;;15.70;44.80;14.50;99391.00;;;;5073238;28;19928;-61
2021/12/10 01:45:31;;;;;;;;;;;15.60;44.70;14.50;99387.00;;;;5084979;28;19920;-62
2021/12/10 01:48:26;;;;;;;;;;;15.70;44.80;14.50;99389.00;;;;5073326;28;19951;-62
2021/12/10 01:51:14;;;;;;;;;;;15.70;44.80;14.50;99387.00;;;;5077690;28;19928;-62
2021/12/10 01:54:05;;;;;;;;;;;15.70;44.80;14.50;99392.00;;;;5077351;28;19962;-61
2021/12/10 01:56:55;;;;;;;;;;;15.70;44.80;14.50;99392.00;;;;5088784;28;19939;-61
2021/12/10 01:59:41;;;;;;;;;;;15.60;44.70;14.50;99396.00;;;;5068491;28;19943;-62
2021/12/10 02:02:30;;;;;;;;;;;15.70;44.70;14.50;99390.00;;;;5077921;28;19917;-62
2021/12/10 02:05:19;;;;;;;;;;;15.70;44.70;14.50;99392.00;;;;5065240;28;20385;-62
2021/12/10 02:08:05;;;;;;;;;;;15.70;44.70;14.50;99380.00;;;;5075752;28;19916;-61
2021/12/10 02:10:51;;;;;;;;;;;15.70;44.70;14.50;99380.00;;;;5074875;28;19943;-62
2021/12/10 02:13:37;;;;;;;;;;;15.70;44.70;14.50;99377.00;;;;5080045;28;19926;-61
2021/12/10 02:16:23;;;;;;;;;;;15.70;44.70;14.50;99370.00;;;;5077143;28;19917;-61
2021/12/10 02:19:10;;;;;;;;;;;15.70;44.70;14.50;99368.00;;;;5070544;28;20055;-61
2021/12/10 02:21:57;;;;;;;;;;;15.70;44.80;14.50;99368.00;;;;5071949;28;19978;-62
2021/12/10 02:24:43;;;;;;;;;;;15.60;44.70;14.50;99363.00;;;;5066599;28;19966;-61
2021/12/10 02:27:29;;;;;;;;;;;15.70;44.70;14.50;99367.00;;;;5075189;28;19920;-61
2021/12/10 02:30:16;;;;;;;;;;;15.70;44.70;14.50;99356.00;;;;5079000;28;19921;-62
2021/12/10 02:33:02;;;;;;;;;;;15.70;44.70;14.50;99361.00;;;;5087638;28;20326;-62
2021/12/10 02:35:49;;;;;;;;;;;15.70;44.70;14.50;99353.00;;;;5081023;28;20419;-62
2021/12/10 02:38:35;;;;;;;;;;;15.70;44.70;14.50;99340.00;;;;5072651;28;19921;-61
2021/12/10 02:41:26;;;;;;;;;;;15.70;44.70;14.50;99350.00;;;;5068379;28;19923;-61
2021/12/10 02:44:13;;;;;;;;;;;15.70;44.70;14.50;99347.00;;;;5070336;28;20006;-62
2021/12/10 02:46:59;;;;;;;;;;;15.70;44.70;14.50;99332.00;;;;5054627;28;19958;-61
2021/12/10 02:49:46;;;;;;;;;;;15.70;44.70;14.50;99341.00;;;;5058640;28;19970;-61
2021/12/10 02:52:32;;;;;;;;;;;15.70;44.70;14.50;99328.00;;;;5067141;28;20561;-62
2021/12/10 02:55:18;;;;;;;;;;;15.70;44.70;14.50;99326.00;;;;5071877;28;19925;-62
2021/12/10 02:58:07;;;;;;;;;;;15.70;44.70;14.50;99322.00;;;;5071384;28;20393;-62
2021/12/10 03:01:00;;;;;;;;;;;15.70;44.70;14.50;99319.00;;;;5069588;28;19924;-62
2021/12/10 03:03:46;;;;;;;;;;;15.70;44.70;14.50;99309.00;;;;5057565;28;19920;-61
2021/12/10 03:06:33;;;;;;;;;;;15.70;44.70;14.50;99307.00;;;;5073150;28;19924;-62
2021/12/10 03:09:21;;;;;;;;;;;15.70;44.70;14.50;99307.00;;;;5058674;28;20289;-62
2021/12/10 03:12:07;;;;;;;;;;;15.70;44.70;14.50;99294.00;;;;5062449;28;20429;-61
2021/12/10 03:14:54;;;;;;;;;;;15.70;44.70;14.50;99286.00;;;;5080504;28;19916;-62
2021/12/10 03:17:42;;;;;;;;;;;15.70;44.70;14.50;99281.00;;;;5079843;28;19923;-61
2021/12/10 03:20:29;;;;;;;;;;;15.70;44.70;14.60;99283.00;;;;5075875;28;19920;-61
2021/12/10 03:23:15;;;;;;;;;;;15.70;44.70;14.60;99268.00;;;;5076788;28;20014;-61
2021/12/10 03:26:01;;;;;;;;;;;15.70;44.70;14.60;99272.00;;;;5050024;28;19916;-61
2021/12/10 03:28:49;;;;;;;;;;;15.70;44.70;14.60;99270.00;;;;5061937;28;20317;-61
2021/12/10 03:31:35;;;;;;;;;;;15.70;44.70;14.60;99279.00;;;;5057738;28;19916;-61
2021/12/10 03:34:21;;;;;;;;;;;15.70;44.70;14.60;99289.00;;;;5074042;28;20285;-62
2021/12/10 03:37:07;;;;;;;;;;;15.70;44.70;14.60;99285.00;;;;5083291;28;20262;-61
2021/12/10 03:39:54;;;;;;;;;;;15.70;44.70;14.60;99285.00;;;;5077842;28;19927;-62
2021/12/10 03:42:43;;;;;;;;;;;15.70;44.60;14.60;99279.00;;;;5072704;28;20416;-62
2021/12/10 03:45:37;;;;;;;;;;;15.70;44.60;14.60;99281.00;;;;5045717;28;20011;-61
2021/12/10 03:48:31;;;;;;;;;;;15.70;44.60;14.60;99279.00;;;;5071432;28;19917;-62
2021/12/10 03:51:20;;;;;;;;;;;15.70;44.60;14.60;99281.00;;;;5063842;28;19920;-62
2021/12/10 03:54:06;;;;;;;;;;;15.70;44.60;14.60;99275.00;;;;5075726;28;19924;-61
2021/12/10 03:56:52;;;;;;;;;;;15.70;44.60;14.60;99272.00;;;;5078075;28;19923;-62
2021/12/10 03:59:39;;;;;;;;;;;15.70;44.50;14.60;99275.00;;;;5074333;28;19921;-61
2021/12/10 04:02:26;;;;;;;;;;;15.70;44.50;14.60;99275.00;;;;5053790;28;19921;-62
2021/12/10 04:05:12;;;;;;;;;;;15.70;44.50;14.60;99271.00;;;;5068727;28;20401;-61
2021/12/10 04:07:58;;;;;;;;;;;15.70;44.50;14.60;99268.00;;;;5057381;28;19959;-62
2021/12/10 04:10:45;;;;;;;;;;;15.70;44.60;14.60;99267.00;;;;5069847;28;20011;-61
2021/12/10 04:13:31;;;;;;;;;;;15.70;44.50;14.60;99251.00;;;;5056329;28;19916;-62
2021/12/10 04:16:18;;;;;;;;;;;15.70;44.50;14.60;99252.00;;;;5086136;28;19920;-61
2021/12/10 04:19:08;;;;;;;;;;;15.70;44.50;14.60;99243.00;;;;5064656;28;19920;-61
2021/12/10 04:21:56;;;;;;;;;;;15.70;44.50;14.60;99246.00;;;;5071405;28;20011;-62
2021/12/10 04:24:42;;;;;;;;;;;15.70;44.50;14.60;99243.00;;;;5064543;28;19924;-62
2021/12/10 04:27:28;;;;;;;;;;;15.70;44.50;14.50;99241.00;;;;5076647;28;19927;-61
2021/12/10 04:30:15;;;;;;;;;;;15.70;44.50;14.60;99231.00;;;;5081344;28;19951;-62
2021/12/10 04:33:03;;;;;;;;;;;15.70;44.50;14.60;99223.00;;;;5085453;28;20317;-61
2021/12/10 04:35:50;;;;;;;;;;;15.70;44.50;14.50;99219.00;;;;5072577;28;19924;-61
2021/12/10 04:38:36;;;;;;;;;;;15.70;44.50;14.60;99221.00;;;;5088472;28;19920;-62
2021/12/10 04:41:24;;;;;;;;;;;15.70;44.50;14.60;99216.00;;;;5071364;28;19916;-61
2021/12/10 04:44:10;;;;;;;;;;;15.70;44.50;14.60;99210.00;;;;5073501;28;19928;-61
2021/12/10 04:46:56;;;;;;;;;;;15.70;44.50;14.60;99209.00;;;;5081255;28;19920;-61
2021/12/10 04:49:42;;;;;;;;;;;15.70;44.50;14.60;99206.00;;;;5076570;28;19921;-62
2021/12/10 04:52:28;;;;;;;;;;;15.70;44.50;14.60;99193.00;;;;5086867;28;20366;-62
2021/12/10 04:55:15;;;;;;;;;;;15.70;44.50;14.60;99185.00;;;;5072667;28;19920;-61
2021/12/10 04:58:01;;;;;;;;;;;15.70;44.50;14.60;99177.00;;;;5089440;28;19923;-61
2021/12/10 05:00:48;;;;;;;;;;;15.70;44.50;14.60;99177.00;;;;5093492;28;19916;-62
2021/12/10 05:03:34;;;;;;;;;;;15.70;44.50;14.60;99173.00;;;;5092328;28;20010;-61
2021/12/10 05:06:20;;;;;;;;;;;15.70;45.20;14.60;99165.00;;;;5072484;28;20400;-61
2021/12/10 05:09:08;;;;;;;;;;;15.70;44.50;14.50;99155.00;;;;5089379;28;20098;-62
2021/12/10 05:11:54;;;;;;;;;;;15.70;44.50;14.60;99148.00;;;;5050113;28;20401;-62
2021/12/10 05:14:40;;;;;;;;;;;15.70;44.50;14.60;99141.00;;;;5059449;28;19916;-62
2021/12/10 05:17:29;;;;;;;;;;;15.70;44.50;14.60;99146.00;;;;5078691;28;20397;-62
2021/12/10 05:20:18;;;;;;;;;;;15.70;44.50;14.60;99127.00;;;;5091685;28;20251;-62
2021/12/10 05:23:04;;;;;;;;;;;15.70;44.50;14.60;99124.00;;;;5065220;28;19926;-62
2021/12/10 05:25:51;;;;;;;;;;;15.70;44.50;14.60;99116.00;;;;5076434;28;19994;-61
2021/12/10 05:28:37;;;;;;;;;;;15.70;44.50;14.60;99114.00;;;;5077588;28;19919;-61
2021/12/10 05:31:23;;;;;;;;;;;15.70;44.50;14.60;99118.00;;;;5063491;28;20343;-62
2021/12/10 05:34:09;;;;;;;;;;;15.70;44.50;14.60;99119.00;;;;5057237;28;19928;-62
2021/12/10 05:36:57;;;;;;;;;;;15.70;44.50;14.60;99123.00;;;;5058938;28;19916;-62
2021/12/10 05:39:43;;;;;;;;;;;15.70;44.50;14.60;99113.00;;;;5072676;28;20006;-61
2021/12/10 05:42:29;;;;;;;;;;;15.70;44.50;14.60;99106.00;;;;5087279;28;19971;-62
2021/12/10 05:45:16;;;;;;;;;;;15.70;44.50;14.60;99106.00;;;;5087225;28;20042;-62
2021/12/10 05:48:03;;;;;;;;;;;15.70;44.50;14.60;99103.00;;;;5078013;28;19916;-61
2021/12/10 05:50:49;;;;;;;;;;;15.70;44.50;14.60;99098.00;;;;5090989;28;19920;-62
2021/12/10 05:53:35;;;;;;;;;;;15.70;44.50;14.60;99094.00;;;;5053930;28;19924;-62
2021/12/10 05:56:21;;;;;;;;;;;15.70;44.50;14.60;99097.00;;;;5075925;28;19920;-62
2021/12/10 05:59:07;;;;;;;;;;;15.70;44.50;14.60;99094.00;;;;5068287;28;20293;-62
2021/12/10 06:01:53;;;;;;;;;;;15.70;44.50;14.60;99089.00;;;;5054609;28;20002;-62
2021/12/10 06:04:39;;;;;;;;;;;15.70;44.50;14.60;99098.00;;;;5081298;28;19920;-62
2021/12/10 06:07:26;;;;;;;;;;;15.70;44.50;14.60;99095.00;;;;5061107;28;19932;-62
2021/12/10 06:10:12;;;;;;;;;;;15.70;44.50;14.60;99096.00;;;;5064349;28;19926;-62
2021/12/10 06:12:58;;;;;;;;;;;15.70;44.50;14.60;99087.00;;;;5078840;28;19942;-62
2021/12/10 06:15:44;;;;;;;;;;;15.70;44.50;14.60;99093.00;;;;5052055;28;19961;-61
2021/12/10 06:18:30;;;;;;;;;;;15.70;44.50;14.60;99088.00;;;;5076082;28;20281;-62
2021/12/10 06:21:17;;;;;;;;;;;15.70;44.50;14.60;99089.00;;;;5070648;28;19960;-61
2021/12/10 06:24:03;;;;;;;;;;;15.70;44.50;14.60;99085.00;;;;5054928;28;19948;-61
2021/12/10 06:26:52;;;;;;;;;;;15.70;44.50;14.60;99082.00;;;;5043908;28;20388;-61
2021/12/10 06:29:41;;;;;;;;;;;15.70;44.50;14.60;99081.00;;;;5057099;28;19928;-62
2021/12/10 06:32:27;;;;;;;;;;;15.70;44.50;14.60;99084.00;;;;5058371;28;19916;-61
2021/12/10 06:35:14;;;;;;;;;;;15.70;44.50;14.60;99077.00;;;;5070109;28;20011;-62
2021/12/10 06:38:00;;;;;;;;;;;15.70;44.50;14.60;99073.00;;;;5072326;28;19931;-62
2021/12/10 06:40:46;;;;;;;;;;;15.70;44.50;14.60;99066.00;;;;5069799;28;19920;-62
2021/12/10 06:43:32;;;;;;;;;;;15.70;44.50;14.60;99061.00;;;;5066283;28;19916;-61
2021/12/10 06:46:18;;;;;;;;;;;15.70;44.50;14.60;99056.00;;;;5076797;28;19972;-62
2021/12/10 06:49:04;;;;;;;;;;;15.70;44.50;14.60;99065.00;;;;5060027;28;20895;-61
2021/12/10 06:51:50;;;;;;;;;;;15.70;44.50;14.60;99056.00;;;;5058714;28;19960;-61
2021/12/10 06:54:39;;;;;;;;;;;15.70;44.50;14.60;99064.00;;;;5078579;28;19945;-61
2021/12/10 06:57:25;;;;;;;;;;;15.70;44.50;14.60;99057.00;;;;5072613;28;19947;-62
2021/12/10 07:00:15;;;;;;;;;;;15.70;44.50;14.60;99049.00;;;;5049067;28;20251;-61
2021/12/10 07:03:01;;;;;;;;;;;15.70;44.50;14.60;99059.00;;;;5032853;28;20370;-62
2021/12/10 07:05:47;;;;;;;;;;;15.80;44.50;14.60;99052.00;;;;5064334;28;19930;-61
2021/12/10 07:08:35;;;;;;;;;;;15.80;44.50;14.70;99057.00;;;;5059919;28;19917;-61
2021/12/10 07:11:21;;;;;;;;;;;15.80;44.50;14.60;99056.00;;;;5058367;28;19920;-61
2021/12/10 07:14:07;;;;;;;;;;;15.80;44.50;14.60;99057.00;;;;5069605;28;19916;-62
2021/12/10 07:16:53;;;;;;;;;;;15.80;44.40;14.60;99054.00;;;;5067610;28;19917;-61
2021/12/10 07:19:42;;;;;;;;;;;15.80;44.40;14.70;99053.00;;;;5073198;28;20316;-61
2021/12/10 07:22:28;;;;;;;;;;;15.80;44.40;14.70;99055.00;;;;5065943;28;19951;-61
2021/12/10 07:25:14;;;;;;;;;;;15.80;44.40;14.70;99055.00;;;;5067874;28;19942;-61
2021/12/10 07:28:00;;;;;;;;;;;15.80;44.40;14.70;99049.00;;;;5074509;28;19924;-62
2021/12/10 07:30:47;;;;;;;;;;;15.80;44.40;14.70;99044.00;;;;5070256;28;19920;-62
2021/12/10 07:33:33;;;;;;;;;;;15.80;44.40;14.70;99047.00;;;;5082905;28;20306;-61
2021/12/10 07:36:19;;;;;;;;;;;15.80;44.40;14.70;99038.00;;;;5075768;28;20273;-62
2021/12/10 07:39:07;;;;;;;;;;;15.80;44.40;14.60;99049.00;;;;5067447;28;19920;-61
2021/12/10 07:41:54;;;;;;;;;;;15.80;44.40;14.60;99043.00;;;;5071993;28;19920;-62
2021/12/10 07:44:40;;;;;;;;;;;15.80;44.40;14.60;99038.00;;;;5071692;28;20385;-62
2021/12/10 07:47:33;;;;;;;;;;;15.80;44.40;14.60;99048.00;;;;5078785;28;19962;-62
2021/12/10 07:50:27;;;;;;;;;;;15.80;44.40;14.60;99041.00;;;;5049606;28;19920;-62
2021/12/10 07:53:15;;;;;;;;;;;15.80;44.40;14.60;99037.00;;;;5078373;28;19974;-61
2021/12/10 07:56:03;;;;;;;;;;;15.80;44.40;14.60;99035.00;;;;5062993;28;19959;-61
2021/12/10 07:58:49;;;;;;;;;;;15.80;44.40;14.60;99039.00;;;;5081376;28;19916;-61
2021/12/10 08:01:35;;;;;;;;;;;15.80;44.40;14.60;99029.00;;;;5081677;28;19919;-61
2021/12/10 08:04:21;;;;;;;;;;;15.80;44.30;14.60;99030.00;;;;5078223;28;19916;-61
2021/12/10 08:07:07;;;;;;;;;;;15.80;44.30;14.70;99031.00;;;;5073994;28;20023;-61
2021/12/10 08:09:53;;;;;;;;;;;15.80;44.30;14.70;99033.00;;;;5081574;28;20373;-62
2021/12/10 08:12:40;;;;;;;;;;;15.80;44.30;14.70;99021.00;;;;5072490;28;19916;-62
2021/12/10 08:15:26;;;;;;;;;;;15.80;44.30;14.70;99022.00;;;;5077831;28;19921;-61
2021/12/10 08:18:12;;;;;;;;;;;15.80;44.30;14.70;99029.00;;;;5057421;28;20631;-62
2021/12/10 08:20:58;;;;;;;;;;;15.80;44.30;14.70;99025.00;;;;5074863;28;20382;-61
2021/12/10 08:23:44;;;;;;;;;;;15.80;44.20;14.70;99030.00;;;;5069477;28;19916;-61
2021/12/10 08:26:30;;;;;;;;;;;15.80;44.30;14.70;99024.00;;;;5068897;28;19924;-61
2021/12/10 08:29:20;;;;;;;;;;;15.80;44.20;14.70;99028.00;;;;5068679;28;20387;-61
2021/12/10 08:32:06;;;;;;;;;;;15.80;44.20;14.70;99029.00;;;;5070972;28;19917;-61
2021/12/10 08:34:52;;;;;;;;;;;15.80;44.20;14.70;99029.00;;;;5074495;28;20007;-61
2021/12/10 08:37:38;;;;;;;;;;;15.80;44.20;14.70;99022.00;;;;5072973;28;19978;-61
2021/12/10 08:40:28;;;;;;;;;;;15.80;44.20;14.70;99023.00;;;;5040505;28;19921;-61
2021/12/10 08:43:17;;;;;;;;;;;15.80;44.20;14.70;99022.00;;;;5065233;28;20389;-61
2021/12/10 08:46:04;;;;;;;;;;;15.80;44.20;14.70;99023.00;;;;5043293;28;19917;-61
2021/12/10 08:48:50;;;;;;;;;;;15.80;44.30;14.70;99027.00;;;;5054113;28;20003;-62
2021/12/10 08:51:39;;;;;;;;;;;15.80;44.20;14.70;99015.00;;;;5026129;28;19921;-61
2021/12/10 08:54:27;;;;;;;;;;;15.80;44.20;14.70;99023.00;;;;5070859;28;20050;-61
2021/12/10 08:57:13;;;;;;;;;;;15.80;44.20;14.70;99021.00;;;;5051229;28;20282;-62
2021/12/10 08:59:59;;;;;;;;;;;15.70;44.20;14.70;99025.00;;;;5050401;28;20585;-61
2021/12/10 09:02:45;;;;;;;;;;;15.80;44.20;14.70;99025.00;;;;5048221;28;20363;-62
2021/12/10 09:05:31;;;;;;;;;;;15.80;44.20;14.60;99015.00;;;;5051255;28;20281;-61
2021/12/10 09:08:17;;;;;;;;;;;15.80;44.20;14.60;99014.00;;;;5035640;28;19916;-62
2021/12/10 09:11:04;;;;;;;;;;;15.80;44.20;14.60;99024.00;;;;5050115;28;19921;-61
2021/12/10 09:13:50;;;;;;;;;;;15.80;44.20;14.60;99025.00;;;;5051729;28;20009;-62
2021/12/10 09:16:37;;;;;;;;;;;15.80;44.20;14.60;99021.00;;;;5030921;28;19923;-61
2021/12/10 09:19:24;;;;;;;;;;;15.80;44.20;14.60;99022.00;;;;5065241;28;20124;-61
2021/12/10 09:22:11;;;;;;;;;;;15.80;44.20;14.60;99027.00;;;;5036857;28;19924;-62
2021/12/10 09:24:57;;;;;;;;;;;15.80;44.20;14.60;99024.00;;;;5063689;28;19916;-61
2021/12/10 09:27:43;;;;;;;;;;;15.80;44.20;14.60;99023.00;;;;5058266;28;19921;-62
2021/12/10 09:30:30;;;;;;;;;;;15.80;44.20;14.60;99021.00;;;;5037854;28;20366;-62
2021/12/10 09:33:16;;;;;;;;;;;15.80;44.20;14.70;99028.00;;;;5027718;28;19916;-61
2021/12/10 09:36:03;;;;;;;;;;;15.80;44.20;14.70;99018.00;;;;5049329;28;19916;-62
2021/12/10 09:38:49;;;;;;;;;;;15.80;44.20;14.70;99016.00;;;;5063654;28;20429;-61
2021/12/10 09:41:36;;;;;;;;;;;15.80;44.20;14.70;99014.00;;;;5079939;28;19920;-62
2021/12/10 09:44:22;;;;;;;;;;;15.80;44.20;14.70;99009.00;;;;5071271;28;19916;-63
2021/12/10 09:47:14;;;;;;;;;;;15.80;44.10;14.70;99003.00;;;;5065882;28;19967;-62
2021/12/10 09:50:00;;;;;;;;;;;15.80;44.20;14.70;99000.00;;;;5063897;28;19924;-63
2021/12/10 09:52:46;;;;;;;;;;;15.80;44.10;14.70;99013.00;;;;5088223;28;19916;-62
2021/12/10 09:55:33;;;;;;;;;;;15.80;44.10;14.70;99014.00;;;;5100033;27;19916;-61
2021/12/10 09:58:19;;;;;;;;;;;15.80;44.10;14.70;99005.00;;;;5079696;28;20373;-61
2021/12/10 10:01:07;;;;;;;;;;;15.80;44.10;14.70;99017.00;;;;5078400;28;20023;-62
2021/12/10 10:04:00;;;;;;;;;;;15.80;44.10;14.70;99008.00;;;;5081162;28;19922;-62
2021/12/10 10:07:08;;;;;;;;;;;15.80;44.10;14.70;99017.00;;;;5086188;28;20361;-62
2021/12/10 10:09:58;;;;;;;;;;;15.80;44.10;14.70;99003.00;;;;5082059;28;19920;-62
2021/12/10 10:12:47;;;;;;;;;;;15.80;44.10;14.70;99007.00;;;;5091386;28;19969;-62
2021/12/10 10:15:35;;;;;;;;;;;15.90;44.10;14.70;99005.00;;;;5083038;28;19920;-63
2021/12/10 10:18:22;;;;;;;;;;;15.80;44.10;14.70;99002.00;;;;5098339;28;19916;-62
2021/12/10 10:21:33;;;;;;;;;;;15.90;44.10;14.70;99003.00;;;;5091736;28;20566;-63
2021/12/10 10:24:20;;;;;;;;;;;15.90;44.10;14.70;99007.00;;;;5095992;27;19916;-62
2021/12/10 10:27:13;;;;;;;;;;;15.90;44.10;14.70;98993.00;;;;5091521;28;19923;-61
2021/12/10 10:30:05;;;;;;;;;;;16.10;44.20;14.70;98985.00;;;;5096005;28;19920;-62
2021/12/10 10:32:53;;;;;;;;;;;15.90;44.10;14.70;98982.00;;;;5079885;28;20341;-62
2021/12/10 10:35:42;;;;;;;;;;;15.90;44.10;14.70;98983.00;;;;5090892;28;20012;-62
2021/12/10 10:38:28;;;;;;;;;;;15.90;44.10;14.70;98989.00;;;;5104032;27;19927;-62
2021/12/10 10:41:15;;;;;;;;;;;15.90;44.10;14.70;98984.00;;;;5087298;28;19920;-61
2021/12/10 10:44:02;;;;;;;;;;;15.90;44.00;14.70;98989.00;;;;5080568;28;19920;-62
2021/12/10 10:46:48;;;;;;;;;;;15.90;44.00;14.80;98991.00;;;;5114566;28;19927;-61
2021/12/10 10:49:47;;;;;;;;;;;15.90;44.00;14.80;98981.00;;;;5075700;28;19920;-62
2021/12/10 10:52:35;;;;;;;;;;;15.90;44.00;14.80;98985.00;;;;5085956;28;19923;-62
2021/12/10 10:55:30;;;;;;;;;;;15.90;44.00;14.80;98992.00;;;;5082443;28;19915;-62
2021/12/10 10:58:17;;;;;;;;;;;15.90;44.00;14.80;98982.00;;;;5082197;28;20022;-62
2021/12/10 11:01:15;;;;;;;;;;;15.90;44.00;14.80;98984.00;;;;5107780;28;20371;-62
2021/12/10 11:04:12;;;;;;;;;;;15.90;43.90;14.80;98978.00;;;;5072819;28;19924;-62
2021/12/10 11:07:16;;;;;;;;;;;15.90;43.90;14.80;98990.00;;;;5089020;28;19920;-62
2021/12/10 11:10:05;;;;;;;;;;;15.90;43.90;14.80;98981.00;;;;5102544;28;19920;-62
2021/12/10 11:12:51;;;;;;;;;;;15.90;43.90;14.80;98977.00;;;;5105104;28;20011;-62
2021/12/10 11:15:38;;;;;;;;;;;15.90;43.90;14.80;98978.00;;;;5106783;28;20333;-62
2021/12/10 11:18:25;;;;;;;;;;;15.90;43.90;14.80;98986.00;;;;5111793;28;19934;-62
2021/12/10 11:21:11;;;;;;;;;;;16.00;43.90;14.80;98980.00;;;;5070856;28;19985;-62
2021/12/10 11:24:20;;;;;;;;;;;15.90;43.90;14.80;98980.00;;;;5089024;27;19924;-62
2021/12/10 11:27:09;;;;;;;;;;;16.00;44.00;14.80;98980.00;;;;5081477;28;19916;-62
2021/12/10 11:30:02;;;;;;;;;;;16.00;43.90;14.80;98981.00;;;;5092221;28;19924;-62
2021/12/10 11:33:04;;;;;;;;;;;15.90;43.90;14.80;98971.00;;;;5077434;28;20355;-61
2021/12/10 11:35:53;;;;;;;;;;;16.00;43.90;14.80;98972.00;;;;5081875;28;20173;-61
2021/12/10 11:38:39;;;;;;;;;;;16.00;43.90;14.80;98974.00;;;;5093973;28;19928;-62
2021/12/10 11:41:27;;;;;;;;;;;16.00;43.90;14.80;98973.00;;;;5108694;27;19928;-62
2021/12/10 11:44:37;;;;;;;;;;;16.00;43.90;14.80;98978.00;;;;5079588;28;20357;-62
2021/12/10 11:47:38;;;;;;;;;;;16.00;43.90;14.80;98969.00;;;;5085128;28;19916;-62
2021/12/10 11:50:25;;;;;;;;;;;16.00;43.90;14.80;98962.00;;;;5086222;28;20297;-62
2021/12/10 11:53:16;;;;;;;;;;;16.00;43.90;14.80;98968.00;;;;5103775;27;19920;-62
2021/12/10 11:56:06;;;;;;;;;;;16.00;43.90;14.80;98967.00;;;;5094283;28;19931;-62
2021/12/10 11:59:15;;;;;;;;;;;16.00;43.90;14.80;98959.00;;;;5088139;28;19916;-62
2021/12/10 12:02:08;;;;;;;;;;;16.00;43.90;14.80;98968.00;;;;5103160;27;19949;-61
2021/12/10 12:04:58;;;;;;;;;;;16.00;44.60;14.80;98968.00;;;;5095721;28;19916;-62
2021/12/10 12:07:52;;;;;;;;;;;16.00;43.90;14.80;98964.00;;;;5094343;28;20002;-61
2021/12/10 12:10:40;;;;;;;;;;;16.00;43.80;14.80;98968.00;;;;5097341;27;20280;-62
2021/12/10 12:13:38;;;;;;;;;;;16.00;43.90;14.80;98963.00;;;;5089102;28;19916;-62
2021/12/10 12:16:26;;;;;;;;;;;16.00;43.80;14.80;98967.00;;;;5074873;28;19916;-62
2021/12/10 12:19:13;;;;;;;;;;;16.10;43.90;14.80;98968.00;;;;5083630;28;20006;-62
2021/12/10 12:22:37;;;;;;;;;;;16.00;43.80;14.90;98968.00;;;;5083849;28;20394;-62
2021/12/10 12:25:30;;;;;;;;;;;16.00;43.80;14.90;98969.00;;;;5093287;28;19923;-62
2021/12/10 12:28:17;;;;;;;;;;;16.00;43.80;14.90;98964.00;;;;5103908;27;19922;-62
2021/12/10 12:31:07;;;;;;;;;;;16.00;43.80;14.90;98970.00;;;;5088876;28;19927;-62
2021/12/10 12:34:13;;;;;;;;;;;16.00;43.80;14.90;98969.00;;;;5091876;28;19916;-62
2021/12/10 12:37:01;;;;;;;;;;;16.10;43.80;14.90;98979.00;;;;5091561;27;20355;-62
2021/12/10 12:39:55;;;;;;;;;;;16.10;43.80;14.90;98976.00;;;;5076354;27;19928;-62
2021/12/10 12:42:46;;;;;;;;;;;16.00;43.80;14.90;98968.00;;;;5036755;28;19991;-63
2021/12/10 12:45:33;;;;;;;;;;;16.00;43.70;14.90;98965.00;;;;5031908;28;20016;-62
2021/12/10 12:48:19;;;;;;;;;;;16.10;43.80;14.90;98976.00;;;;5045639;28;19932;-61
2021/12/10 12:51:11;;;;;;;;;;;16.10;43.80;14.90;98971.00;;;;5058072;28;20033;-61
2021/12/10 12:53:57;;;;;;;;;;;16.10;43.80;14.90;98978.00;;;;5038998;28;19928;-62
2021/12/10 12:56:43;;;;;;;;;;;16.10;43.80;14.90;98975.00;;;;5055974;28;19920;-61
2021/12/10 12:59:29;;;;;;;;;;;16.10;43.80;14.90;98978.00;;;;5058588;28;20301;-61
2021/12/10 13:02:15;;;;;;;;;;;16.10;43.80;14.90;98981.00;;;;5049114;28;20015;-61
2021/12/10 13:05:04;;;;;;;;;;;16.10;43.70;14.90;98972.00;;;;5053511;28;19916;-62
2021/12/10 13:07:52;;;;;;;;;;;16.10;43.70;15.00;98968.00;;;;5049826;28;19963;-61
2021/12/10 13:10:40;;;;;;;;;;;16.10;43.80;15.00;98984.00;;;;5045460;28;20366;-62
2021/12/10 13:13:36;;;;;;;;;;;16.10;43.70;15.00;98977.00;;;;5050264;28;19994;-62
2021/12/10 13:16:57;;;;;;;;;;;16.10;43.70;15.00;98974.00;;;;5065440;28;20067;-63
2021/12/10 13:19:43;;;;;;;;;;;16.10;43.70;15.00;98988.00;;;;5052145;28;19917;-62
2021/12/10 13:22:30;;;;;;;;;;;16.10;43.60;15.00;98990.00;;;;5053912;28;19924;-63
2021/12/10 13:25:18;;;;;;;;;;;16.10;43.70;15.00;98989.00;;;;5070763;28;19992;-63
2021/12/10 13:28:04;;;;;;;;;;;16.10;43.60;15.00;98990.00;;;;5061641;28;19924;-63
2021/12/10 13:30:53;;;;;;;;;;;16.10;43.60;15.00;98999.00;;;;5045147;28;19920;-62
2021/12/10 13:33:41;;;;;;;;;;;16.10;43.60;15.00;98995.00;;;;5051934;28;20266;-62
2021/12/10 13:36:27;;;;;;;;;;;16.10;43.60;15.00;99003.00;;;;5062151;28;19924;-63
2021/12/10 13:39:15;;;;;;;;;;;16.20;43.70;15.00;98996.00;;;;5022414;28;19932;-62
2021/12/10 13:42:02;;;;;;;;;;;16.20;43.70;15.00;99000.00;;;;5050653;28;19916;-62
2021/12/10 13:44:52;;;;;;;;;;;16.20;43.70;15.00;99010.00;;;;5040965;28;19927;-62
2021/12/10 13:47:41;;;;;;;;;;;16.20;43.70;14.90;99008.00;;;;5059574;28;19928;-62
2021/12/10 13:50:27;;;;;;;;;;;16.20;43.60;14.90;99016.00;;;;5026936;28;19942;-62
2021/12/10 13:53:16;;;;;;;;;;;16.10;43.60;14.90;99013.00;;;;5053029;28;19928;-62
2021/12/10 13:56:06;;;;;;;;;;;16.10;43.60;14.90;99009.00;;;;5056392;28;20333;-62